Salida, Colorado
Current Conditions -  °F | °C
As of 2:15 AM on Monday 22 Dec 2014 (Local Time) from KANK Reporting Station
Overcast Overcast  
Wind Chill: 30°   Ceiling: 4700
Heat Index: 35°   Visibility: 10mi
Dew Point: 33°   Wind: 6mph
Humidity: 91%   Direction: 260°W
Pressure: 29.82"   Gusts: NA
Location:  38.53°N, 106°W
Report Text: KANK 220915Z AUTO 26005KT 10SM SCT033 BKN047 OVC065 02/00 A2982 RMK AO1 T00160003
Loading
Personal Weather Stations






























Interactive Weather Map New forecast layout! Learn more

10-Day Weather Forecast

Advertisements
Track Severe Weather on mobile